sensor_id;sensor_type;location;lat;lon;timestamp;pressure;altitude;pressure_sealevel;temperature;humidity
70976;BME280;58635;51.198;6.010;2023-12-20T00:02:25;101423.75;;;11.02;70.14
70976;BME280;58635;51.198;6.010;2023-12-20T00:04:51;101438.63;;;11.00;69.85
70976;BME280;58635;51.198;6.010;2023-12-20T00:07:17;101438.19;;;10.97;70.00
70976;BME280;58635;51.198;6.010;2023-12-20T00:09:44;101442.94;;;10.93;69.99
70976;BME280;58635;51.198;6.010;2023-12-20T00:12:10;101448.91;;;10.94;69.89
70976;BME280;58635;51.198;6.010;2023-12-20T00:14:36;101452.66;;;10.91;69.94
70976;BME280;58635;51.198;6.010;2023-12-20T00:17:03;101448.63;;;10.89;69.73
70976;BME280;58635;51.198;6.010;2023-12-20T00:19:29;101446.41;;;10.86;69.94
70976;BME280;58635;51.198;6.010;2023-12-20T00:21:55;101452.94;;;10.81;69.70
70976;BME280;58635;51.198;6.010;2023-12-20T00:24:22;101456.69;;;10.79;69.76
70976;BME280;58635;51.198;6.010;2023-12-20T00:26:48;101458.63;;;10.77;69.48
70976;BME280;58635;51.198;6.010;2023-12-20T00:29:14;101462.19;;;10.76;69.58
70976;BME280;58635;51.198;6.010;2023-12-20T00:31:40;101475.31;;;10.74;69.67
70976;BME280;58635;51.198;6.010;2023-12-20T00:34:07;101474.50;;;10.74;69.40
70976;BME280;58635;51.198;6.010;2023-12-20T00:36:33;101473.06;;;10.71;69.52
70976;BME280;58635;51.198;6.010;2023-12-20T00:38:59;101475.03;;;10.69;69.24
70976;BME280;58635;51.198;6.010;2023-12-20T00:41:26;101489.47;;;10.64;68.87
70976;BME280;58635;51.198;6.010;2023-12-20T00:43:52;101493.41;;;10.60;69.05
70976;BME280;58635;51.198;6.010;2023-12-20T00:46:19;101486.19;;;10.55;68.95
70976;BME280;58635;51.198;6.010;2023-12-20T00:48:45;101480.53;;;10.51;69.00
70976;BME280;58635;51.198;6.010;2023-12-20T00:51:12;101483.66;;;10.47;68.67
70976;BME280;58635;51.198;6.010;2023-12-20T00:53:38;101487.03;;;10.47;68.58
70976;BME280;58635;51.198;6.010;2023-12-20T00:56:04;101491.59;;;10.45;68.30
70976;BME280;58635;51.198;6.010;2023-12-20T00:58:31;101489.50;;;10.41;68.30
70976;BME280;58635;51.198;6.010;2023-12-20T01:00:57;101485.31;;;10.40;68.11
70976;BME280;58635;51.198;6.010;2023-12-20T01:03:24;101481.47;;;10.36;67.89
70976;BME280;58635;51.198;6.010;2023-12-20T01:05:50;101475.88;;;10.32;68.01
70976;BME280;58635;51.198;6.010;2023-12-20T01:08:16;101477.66;;;10.32;67.94
70976;BME280;58635;51.198;6.010;2023-12-20T01:10:43;101478.97;;;10.28;67.80
70976;BME280;58635;51.198;6.010;2023-12-20T01:13:09;101476.72;;;10.24;67.77
70976;BME280;58635;51.198;6.010;2023-12-20T01:15:36;101475.13;;;10.23;67.94
70976;BME280;58635;51.198;6.010;2023-12-20T01:18:02;101477.22;;;10.20;67.74
70976;BME280;58635;51.198;6.010;2023-12-20T01:20:28;101462.84;;;10.17;67.80
70976;BME280;58635;51.198;6.010;2023-12-20T01:22:55;101462.22;;;10.15;67.78
70976;BME280;58635;51.198;6.010;2023-12-20T01:25:21;101474.53;;;10.13;67.68
70976;BME280;58635;51.198;6.010;2023-12-20T01:27:47;101479.88;;;10.12;67.71
70976;BME280;58635;51.198;6.010;2023-12-20T01:30:14;101476.47;;;10.11;67.66
70976;BME280;58635;51.198;6.010;2023-12-20T01:32:41;101473.28;;;10.09;67.49
70976;BME280;58635;51.198;6.010;2023-12-20T01:35:07;101478.75;;;10.06;67.63
70976;BME280;58635;51.198;6.010;2023-12-20T01:37:33;101479.13;;;10.03;67.52
70976;BME280;58635;51.198;6.010;2023-12-20T01:40:00;101478.66;;;10.00;67.61
70976;BME280;58635;51.198;6.010;2023-12-20T01:42:26;101482.41;;;9.97;67.35
70976;BME280;58635;51.198;6.010;2023-12-20T01:44:52;101480.13;;;9.94;67.48
70976;BME280;58635;51.198;6.010;2023-12-20T01:47:19;101483.06;;;9.91;67.27
70976;BME280;58635;51.198;6.010;2023-12-20T01:49:45;101486.63;;;9.90;67.58
70976;BME280;58635;51.198;6.010;2023-12-20T01:52:12;101484.06;;;9.90;67.49
70976;BME280;58635;51.198;6.010;2023-12-20T01:54:38;101492.78;;;9.89;67.39
70976;BME280;58635;51.198;6.010;2023-12-20T01:57:06;101488.75;;;9.86;67.45
70976;BME280;58635;51.198;6.010;2023-12-20T01:59:33;101493.13;;;9.86;67.46
70976;BME280;58635;51.198;6.010;2023-12-20T02:02:00;101493.47;;;9.83;67.41
70976;BME280;58635;51.198;6.010;2023-12-20T02:04:26;101500.56;;;9.81;67.25
70976;BME280;58635;51.198;6.010;2023-12-20T02:06:53;101502.53;;;9.79;67.39
70976;BME280;58635;51.198;6.010;2023-12-20T02:09:22;101502.06;;;9.75;67.25
70976;BME280;58635;51.198;6.010;2023-12-20T02:11:49;101493.88;;;9.72;67.61
70976;BME280;58635;51.198;6.010;2023-12-20T02:14:15;101499.34;;;9.68;67.36
70976;BME280;58635;51.198;6.010;2023-12-20T02:16:42;101495.34;;;9.66;67.64
70976;BME280;58635;51.198;6.010;2023-12-20T02:19:13;101496.13;;;9.66;67.65
70976;BME280;58635;51.198;6.010;2023-12-20T02:21:41;101504.22;;;9.63;67.52
70976;BME280;58635;51.198;6.010;2023-12-20T02:24:07;101504.41;;;9.62;67.68
70976;BME280;58635;51.198;6.010;2023-12-20T02:26:33;101502.78;;;9.61;67.60
70976;BME280;58635;51.198;6.010;2023-12-20T02:29:00;101505.38;;;9.61;67.68
70976;BME280;58635;51.198;6.010;2023-12-20T02:31:27;101501.19;;;9.60;67.67
70976;BME280;58635;51.198;6.010;2023-12-20T02:33:53;101497.31;;;9.56;67.61
70976;BME280;58635;51.198;6.010;2023-12-20T02:36:20;101495.88;;;9.53;67.58
70976;BME280;58635;51.198;6.010;2023-12-20T02:38:46;101504.59;;;9.52;67.66
70976;BME280;58635;51.198;6.010;2023-12-20T02:41:13;101495.59;;;9.48;67.76
70976;BME280;58635;51.198;6.010;2023-12-20T02:43:40;101505.75;;;9.50;67.74
70976;BME280;58635;51.198;6.010;2023-12-20T02:46:06;101502.03;;;9.52;67.71
70976;BME280;58635;51.198;6.010;2023-12-20T02:48:32;101502.66;;;9.54;67.75
70976;BME280;58635;51.198;6.010;2023-12-20T02:50:59;101495.53;;;9.56;67.69
70976;BME280;58635;51.198;6.010;2023-12-20T02:53:25;101495.38;;;9.58;67.68
70976;BME280;58635;51.198;6.010;2023-12-20T02:55:51;101494.56;;;9.57;67.56
70976;BME280;58635;51.198;6.010;2023-12-20T02:58:18;101498.13;;;9.56;67.53
70976;BME280;58635;51.198;6.010;2023-12-20T03:00:44;101499.28;;;9.54;67.42
70976;BME280;58635;51.198;6.010;2023-12-20T03:03:10;101495.41;;;9.50;67.58
70976;BME280;58635;51.198;6.010;2023-12-20T03:05:37;101503.00;;;9.51;67.36
70976;BME280;58635;51.198;6.010;2023-12-20T03:08:03;101503.16;;;9.50;67.56
70976;BME280;58635;51.198;6.010;2023-12-20T03:10:30;101510.91;;;9.50;67.58
70976;BME280;58635;51.198;6.010;2023-12-20T03:12:56;101514.47;;;9.49;67.70
70976;BME280;58635;51.198;6.010;2023-12-20T03:15:22;101502.69;;;9.46;67.75
70976;BME280;58635;51.198;6.010;2023-12-20T03:17:49;101499.97;;;9.48;67.39
70976;BME280;58635;51.198;6.010;2023-12-20T03:20:15;101497.03;;;9.51;67.58
70976;BME280;58635;51.198;6.010;2023-12-20T03:22:41;101495.41;;;9.50;67.56
70976;BME280;58635;51.198;6.010;2023-12-20T03:25:08;101501.72;;;9.47;67.40
70976;BME280;58635;51.198;6.010;2023-12-20T03:27:37;101489.31;;;9.43;67.43
70976;BME280;58635;51.198;6.010;2023-12-20T03:30:04;101491.09;;;9.42;67.39
70976;BME280;58635;51.198;6.010;2023-12-20T03:32:31;101486.09;;;9.41;67.59
70976;BME280;58635;51.198;6.010;2023-12-20T03:34:57;101493.03;;;9.40;67.64
70976;BME280;58635;51.198;6.010;2023-12-20T03:37:23;101494.00;;;9.39;67.61
70976;BME280;58635;51.198;6.010;2023-12-20T03:39:49;101491.59;;;9.37;67.50
70976;BME280;58635;51.198;6.010;2023-12-20T03:42:16;101483.22;;;9.35;67.53
70976;BME280;58635;51.198;6.010;2023-12-20T03:44:42;101479.81;;;9.35;67.48
70976;BME280;58635;51.198;6.010;2023-12-20T03:47:08;101490.31;;;9.33;67.50
70976;BME280;58635;51.198;6.010;2023-12-20T03:49:35;101487.09;;;9.31;67.51
70976;BME280;58635;51.198;6.010;2023-12-20T03:52:03;101488.06;;;9.30;67.42
70976;BME280;58635;51.198;6.010;2023-12-20T03:54:29;101473.91;;;9.26;67.50
70976;BME280;58635;51.198;6.010;2023-12-20T03:56:56;101469.88;;;9.24;67.52
70976;BME280;58635;51.198;6.010;2023-12-20T03:59:22;101474.38;;;9.22;67.60
70976;BME280;58635;51.198;6.010;2023-12-20T04:01:48;101470.19;;;9.21;67.38
70976;BME280;58635;51.198;6.010;2023-12-20T04:04:15;101473.91;;;9.18;67.65
70976;BME280;58635;51.198;6.010;2023-12-20T04:06:41;101473.47;;;9.15;67.55
70976;BME280;58635;51.198;6.010;2023-12-20T04:09:07;101475.25;;;9.14;67.44
70976;BME280;58635;51.198;6.010;2023-12-20T04:11:36;101471.03;;;9.13;67.40
70976;BME280;58635;51.198;6.010;2023-12-20T04:14:02;101469.59;;;9.11;67.45
70976;BME280;58635;51.198;6.010;2023-12-20T04:16:30;101479.09;;;9.10;67.30
70976;BME280;58635;51.198;6.010;2023-12-20T04:18:57;101477.31;;;9.11;67.45
70976;BME280;58635;51.198;6.010;2023-12-20T04:21:23;101482.66;;;9.09;67.33
70976;BME280;58635;51.198;6.010;2023-12-20T04:23:49;101485.75;;;9.04;67.48
70976;BME280;58635;51.198;6.010;2023-12-20T04:26:16;101493.50;;;9.04;67.48
70976;BME280;58635;51.198;6.010;2023-12-20T04:28:42;101478.97;;;9.03;67.40
70976;BME280;58635;51.198;6.010;2023-12-20T04:31:09;101482.53;;;9.02;67.55
70976;BME280;58635;51.198;6.010;2023-12-20T04:33:35;101492.03;;;9.02;67.74
70976;BME280;58635;51.198;6.010;2023-12-20T04:36:01;101495.44;;;9.02;67.66
70976;BME280;58635;51.198;6.010;2023-12-20T04:38:28;101475.94;;;9.00;67.72
70976;BME280;58635;51.198;6.010;2023-12-20T04:40:54;101484.47;;;9.00;67.80
70976;BME280;58635;51.198;6.010;2023-12-20T04:43:21;101481.56;;;9.03;67.87
70976;BME280;58635;51.198;6.010;2023-12-20T04:45:47;101486.38;;;9.06;67.79
70976;BME280;58635;51.198;6.010;2023-12-20T04:48:13;101473.94;;;9.10;67.81
70976;BME280;58635;51.198;6.010;2023-12-20T04:50:40;101495.88;;;9.14;67.77
70976;BME280;58635;51.198;6.010;2023-12-20T04:53:06;101493.13;;;9.16;67.70
70976;BME280;58635;51.198;6.010;2023-12-20T04:55:32;101487.81;;;9.17;67.70
70976;BME280;58635;51.198;6.010;2023-12-20T04:57:59;101493.59;;;9.19;67.64
70976;BME280;58635;51.198;6.010;2023-12-20T05:00:25;101480.53;;;9.21;67.69
70976;BME280;58635;51.198;6.010;2023-12-20T05:02:51;101484.72;;;9.22;67.91
70976;BME280;58635;51.198;6.010;2023-12-20T05:05:18;101480.34;;;9.22;67.71
70976;BME280;58635;51.198;6.010;2023-12-20T05:07:44;101483.41;;;9.26;67.70
70976;BME280;58635;51.198;6.010;2023-12-20T05:10:10;101486.00;;;9.26;67.82
70976;BME280;58635;51.198;6.010;2023-12-20T05:12:37;101479.06;;;9.26;67.88
70976;BME280;58635;51.198;6.010;2023-12-20T05:15:07;101478.72;;;9.29;67.80
70976;BME280;58635;51.198;6.010;2023-12-20T05:17:34;101482.91;;;9.30;67.85
70976;BME280;58635;51.198;6.010;2023-12-20T05:20:01;101480.97;;;9.32;67.66
70976;BME280;58635;51.198;6.010;2023-12-20T05:22:27;101478.38;;;9.32;67.72
70976;BME280;58635;51.198;6.010;2023-12-20T05:24:53;101476.59;;;9.33;67.71
70976;BME280;58635;51.198;6.010;2023-12-20T05:27:20;101478.06;;;9.35;67.97
70976;BME280;58635;51.198;6.010;2023-12-20T05:29:46;101473.69;;;9.36;67.72
70976;BME280;58635;51.198;6.010;2023-12-20T05:32:12;101467.41;;;9.38;67.76
70976;BME280;58635;51.198;6.010;2023-12-20T05:34:39;101464.19;;;9.36;67.79
70976;BME280;58635;51.198;6.010;2023-12-20T05:37:05;101469.16;;;9.38;67.71
70976;BME280;58635;51.198;6.010;2023-12-20T05:39:31;101473.53;;;9.37;67.74
70976;BME280;58635;51.198;6.010;2023-12-20T05:41:58;101465.16;;;9.35;67.80
70976;BME280;58635;51.198;6.010;2023-12-20T05:44:24;101465.63;;;9.39;67.89
70976;BME280;58635;51.198;6.010;2023-12-20T05:46:50;101463.84;;;9.40;67.79
70976;BME280;58635;51.198;6.010;2023-12-20T05:49:17;101466.25;;;9.41;67.69
70976;BME280;58635;51.198;6.010;2023-12-20T05:51:43;101470.59;;;9.41;67.71
70976;BME280;58635;51.198;6.010;2023-12-20T05:54:09;101469.16;;;9.38;67.80
70976;BME280;58635;51.198;6.010;2023-12-20T05:56:36;101472.03;;;9.43;67.62
70976;BME280;58635;51.198;6.010;2023-12-20T05:59:02;101478.81;;;9.44;67.59
70976;BME280;58635;51.198;6.010;2023-12-20T06:01:29;101479.44;;;9.46;67.54
70976;BME280;58635;51.198;6.010;2023-12-20T06:03:55;101476.22;;;9.44;67.64
70976;BME280;58635;51.198;6.010;2023-12-20T06:06:21;101478.81;;;9.44;67.52
70976;BME280;58635;51.198;6.010;2023-12-20T06:08:48;101488.34;;;9.44;67.55
70976;BME280;58635;51.198;6.010;2023-12-20T06:11:14;101495.91;;;9.45;67.50
70976;BME280;58635;51.198;6.010;2023-12-20T06:13:41;101502.84;;;9.45;67.58
70976;BME280;58635;51.198;6.010;2023-12-20T06:16:07;101507.69;;;9.48;67.45
70976;BME280;58635;51.198;6.010;2023-12-20T06:18:33;101504.78;;;9.51;67.58
70976;BME280;58635;51.198;6.010;2023-12-20T06:21:00;101498.81;;;9.50;67.46
70976;BME280;58635;51.198;6.010;2023-12-20T06:23:26;101497.19;;;9.49;67.62
70976;BME280;58635;51.198;6.010;2023-12-20T06:25:54;101498.97;;;9.49;67.63
70976;BME280;58635;51.198;6.010;2023-12-20T06:28:20;101492.66;;;9.51;67.48
70976;BME280;58635;51.198;6.010;2023-12-20T06:30:46;101498.63;;;9.52;67.42
70976;BME280;58635;51.198;6.010;2023-12-20T06:33:15;101497.84;;;9.51;67.54
70976;BME280;58635;51.198;6.010;2023-12-20T06:35:41;101507.34;;;9.51;67.79
70976;BME280;58635;51.198;6.010;2023-12-20T06:38:08;101505.41;;;9.53;67.51
70976;BME280;58635;51.198;6.010;2023-12-20T06:40:35;101507.81;;;9.54;67.47
70976;BME280;58635;51.198;6.010;2023-12-20T06:43:01;101513.78;;;9.55;67.44
70976;BME280;58635;51.198;6.010;2023-12-20T06:45:28;101514.59;;;9.55;67.12
70976;BME280;58635;51.198;6.010;2023-12-20T06:47:54;101516.19;;;9.56;67.45
70976;BME280;58635;51.198;6.010;2023-12-20T06:50:20;101512.00;;;9.55;67.41
70976;BME280;58635;51.198;6.010;2023-12-20T06:52:47;101509.44;;;9.55;67.33
70976;BME280;58635;51.198;6.010;2023-12-20T06:55:13;101499.28;;;9.54;67.43
70976;BME280;58635;51.198;6.010;2023-12-20T06:57:40;101496.06;;;9.52;67.32
70976;BME280;58635;51.198;6.010;2023-12-20T07:00:07;101503.34;;;9.48;67.28
70976;BME280;58635;51.198;6.010;2023-12-20T07:02:34;101504.31;;;9.47;67.41
70976;BME280;58635;51.198;6.010;2023-12-20T07:05:01;101500.09;;;9.46;67.38
70976;BME280;58635;51.198;6.010;2023-12-20T07:07:27;101495.09;;;9.45;67.10
70976;BME280;58635;51.198;6.010;2023-12-20T07:09:53;101493.50;;;9.44;67.26
70976;BME280;58635;51.198;6.010;2023-12-20T07:12:20;101488.69;;;9.41;67.01
70976;BME280;58635;51.198;6.010;2023-12-20T07:14:46;101492.59;;;9.36;66.91
70976;BME280;58635;51.198;6.010;2023-12-20T07:17:13;101485.16;;;9.33;67.10
70976;BME280;58635;51.198;6.010;2023-12-20T07:19:41;101486.28;;;9.31;67.07
70976;BME280;58635;51.198;6.010;2023-12-20T07:22:08;101483.06;;;9.29;67.26
70976;BME280;58635;51.198;6.010;2023-12-20T07:24:34;101485.19;;;9.25;67.13
70976;BME280;58635;51.198;6.010;2023-12-20T07:27:01;101478.44;;;9.24;67.02
70976;BME280;58635;51.198;6.010;2023-12-20T07:29:27;101478.28;;;9.18;67.02
70976;BME280;58635;51.198;6.010;2023-12-20T07:31:54;101488.94;;;9.15;67.09
70976;BME280;58635;51.198;6.010;2023-12-20T07:34:20;101494.44;;;9.12;66.94
70976;BME280;58635;51.198;6.010;2023-12-20T07:36:47;101497.16;;;9.10;67.23
70976;BME280;58635;51.198;6.010;2023-12-20T07:39:14;101503.31;;;9.09;67.20
70976;BME280;58635;51.198;6.010;2023-12-20T07:41:40;101504.44;;;9.06;67.02
70976;BME280;58635;51.198;6.010;2023-12-20T07:44:07;101501.22;;;9.04;67.12
70976;BME280;58635;51.198;6.010;2023-12-20T07:46:33;101489.94;;;9.05;67.01
70976;BME280;58635;51.198;6.010;2023-12-20T07:49:00;101493.66;;;9.03;67.05
70976;BME280;58635;51.198;6.010;2023-12-20T07:51:26;101494.78;;;9.00;67.13
70976;BME280;58635;51.198;6.010;2023-12-20T07:53:52;101495.75;;;8.99;67.21
70976;BME280;58635;51.198;6.010;2023-12-20T07:56:19;101477.53;;;9.01;67.32
70976;BME280;58635;51.198;6.010;2023-12-20T07:58:46;101488.50;;;9.03;67.54
70976;BME280;58635;51.198;6.010;2023-12-20T08:01:16;101488.31;;;9.04;67.29
70976;BME280;58635;51.198;6.010;2023-12-20T08:03:42;101487.53;;;9.04;67.20
70976;BME280;58635;51.198;6.010;2023-12-20T08:06:09;101489.94;;;9.05;67.07
70976;BME280;58635;51.198;6.010;2023-12-20T08:08:35;101484.78;;;9.05;67.09
70976;BME280;58635;51.198;6.010;2023-12-20T08:11:01;101506.22;;;9.06;67.10
70976;BME280;58635;51.198;6.010;2023-12-20T08:13:28;101504.44;;;9.06;67.01
70976;BME280;58635;51.198;6.010;2023-12-20T08:15:55;101511.84;;;9.09;67.08
70976;BME280;58635;51.198;6.010;2023-12-20T08:18:22;101521.84;;;9.13;67.07
70976;BME280;58635;51.198;6.010;2023-12-20T08:20:49;101511.38;;;9.14;67.04
70976;BME280;58635;51.198;6.010;2023-12-20T08:23:15;101512.81;;;9.17;66.95
70976;BME280;58635;51.198;6.010;2023-12-20T08:25:42;101508.28;;;9.19;66.95
70976;BME280;58635;51.198;6.010;2023-12-20T08:28:08;101517.94;;;9.25;66.96
70976;BME280;58635;51.198;6.010;2023-12-20T08:30:35;101520.19;;;9.28;66.96
70976;BME280;58635;51.198;6.010;2023-12-20T08:33:01;101514.06;;;9.29;66.83
70976;BME280;58635;51.198;6.010;2023-12-20T08:35:28;101509.06;;;9.27;66.98
70976;BME280;58635;51.198;6.010;2023-12-20T08:37:56;101513.09;;;9.30;66.79
70976;BME280;58635;51.198;6.010;2023-12-20T08:40:22;101513.72;;;9.32;66.86
70976;BME280;58635;51.198;6.010;2023-12-20T08:42:49;101517.28;;;9.31;66.67
70976;BME280;58635;51.198;6.010;2023-12-20T08:45:15;101517.72;;;9.34;66.48
70976;BME280;58635;51.198;6.010;2023-12-20T08:47:42;101510.97;;;9.33;66.46
70976;BME280;58635;51.198;6.010;2023-12-20T08:50:10;101512.09;;;9.31;66.63
70976;BME280;58635;51.198;6.010;2023-12-20T08:52:37;101516.13;;;9.33;66.65
70976;BME280;58635;51.198;6.010;2023-12-20T08:55:03;101501.78;;;9.31;66.74
70976;BME280;58635;51.198;6.010;2023-12-20T08:57:30;101503.53;;;9.38;66.69
70976;BME280;58635;51.198;6.010;2023-12-20T08:59:58;101499.97;;;9.40;66.66
70976;BME280;58635;51.198;6.010;2023-12-20T09:02:24;101488.50;;;9.42;66.52
70976;BME280;58635;51.198;6.010;2023-12-20T09:04:50;101494.31;;;9.44;66.41
70976;BME280;58635;51.198;6.010;2023-12-20T09:07:26;101501.72;;;9.47;66.42
70976;BME280;58635;51.198;6.010;2023-12-20T09:09:53;101501.56;;;9.49;66.43
70976;BME280;58635;51.198;6.010;2023-12-20T09:12:19;101489.28;;;9.51;66.47
70976;BME280;58635;51.198;6.010;2023-12-20T09:14:49;101492.66;;;9.51;66.21
70976;BME280;58635;51.198;6.010;2023-12-20T09:17:16;101490.88;;;9.52;66.43
70976;BME280;58635;51.198;6.010;2023-12-20T09:19:43;101489.75;;;9.54;66.43
70976;BME280;58635;51.198;6.010;2023-12-20T09:22:12;101481.66;;;9.57;66.10
70976;BME280;58635;51.198;6.010;2023-12-20T09:24:39;101487.47;;;9.59;66.21
70976;BME280;58635;51.198;6.010;2023-12-20T09:27:05;101482.75;;;9.63;66.21
70976;BME280;58635;51.198;6.010;2023-12-20T09:29:32;101473.88;;;9.65;66.17
70976;BME280;58635;51.198;6.010;2023-12-20T09:31:58;101483.03;;;9.68;65.91
70976;BME280;58635;51.198;6.010;2023-12-20T09:34:25;101481.56;;;9.74;65.89
70976;BME280;58635;51.198;6.010;2023-12-20T09:36:52;101477.84;;;9.76;65.84
70976;BME280;58635;51.198;6.010;2023-12-20T09:39:19;101484.09;;;9.82;65.79
70976;BME280;58635;51.198;6.010;2023-12-20T09:42:00;101494.09;;;9.85;65.58
70976;BME280;58635;51.198;6.010;2023-12-20T09:44:27;101489.41;;;9.88;65.61
70976;BME280;58635;51.198;6.010;2023-12-20T09:46:55;101480.50;;;9.91;65.50
70976;BME280;58635;51.198;6.010;2023-12-20T09:49:22;101492.44;;;9.92;65.48
70976;BME280;58635;51.198;6.010;2023-12-20T09:51:53;101488.25;;;9.91;65.34
70976;BME280;58635;51.198;6.010;2023-12-20T09:54:21;101501.97;;;9.91;65.40
70976;BME280;58635;51.198;6.010;2023-12-20T09:56:47;101499.72;;;9.88;65.42
70976;BME280;58635;51.198;6.010;2023-12-20T09:59:14;101503.75;;;9.91;65.50
70976;BME280;58635;51.198;6.010;2023-12-20T10:01:41;101494.03;;;9.93;65.55
70976;BME280;58635;51.198;6.010;2023-12-20T10:04:09;101488.72;;;9.94;65.30
70976;BME280;58635;51.198;6.010;2023-12-20T10:06:42;101499.50;;;9.98;65.29
70976;BME280;58635;51.198;6.010;2023-12-20T10:09:10;101507.88;;;10.00;65.12
70976;BME280;58635;51.198;6.010;2023-12-20T10:11:38;101492.75;;;9.97;65.21
70976;BME280;58635;51.198;6.010;2023-12-20T10:14:06;101486.75;;;9.96;65.23
70976;BME280;58635;51.198;6.010;2023-12-20T10:16:33;101483.19;;;9.98;64.99
70976;BME280;58635;51.198;6.010;2023-12-20T10:19:00;101489.53;;;9.95;65.03
70976;BME280;58635;51.198;6.010;2023-12-20T10:21:30;101491.59;;;10.00;65.13
70976;BME280;58635;51.198;6.010;2023-12-20T10:23:57;101486.38;;;10.08;65.12
70976;BME280;58635;51.198;6.010;2023-12-20T10:26:27;101478.44;;;10.09;65.01
70976;BME280;58635;51.198;6.010;2023-12-20T10:28:55;101467.13;;;10.10;65.04
70976;BME280;58635;51.198;6.010;2023-12-20T10:31:33;101463.81;;;10.16;64.96
70976;BME280;58635;51.198;6.010;2023-12-20T10:34:01;101459.94;;;10.20;64.89
70976;BME280;58635;51.198;6.010;2023-12-20T10:36:32;101462.81;;;10.25;64.85
70976;BME280;58635;51.198;6.010;2023-12-20T10:38:59;101458.28;;;10.28;64.75
70976;BME280;58635;51.198;6.010;2023-12-20T10:44:02;101460.84;;;10.28;64.74
70976;BME280;58635;51.198;6.010;2023-12-20T10:46:32;101456.03;;;10.24;64.62
70976;BME280;58635;51.198;6.010;2023-12-20T10:49:05;101450.88;;;10.24;64.45
70976;BME280;58635;51.198;6.010;2023-12-20T10:51:33;101460.75;;;10.21;64.85
70976;BME280;58635;51.198;6.010;2023-12-20T10:54:00;101458.34;;;10.19;64.61
70976;BME280;58635;51.198;6.010;2023-12-20T10:56:32;101466.75;;;10.21;64.72
70976;BME280;58635;51.198;6.010;2023-12-20T10:59:01;101464.16;;;10.21;64.67
70976;BME280;58635;51.198;6.010;2023-12-20T11:01:29;101464.16;;;10.21;64.56
70976;BME280;58635;51.198;6.010;2023-12-20T11:03:56;101448.00;;;10.19;64.66
70976;BME280;58635;51.198;6.010;2023-12-20T11:06:43;101448.97;;;10.18;64.75
70976;BME280;58635;51.198;6.010;2023-12-20T11:09:22;101445.56;;;10.18;64.74
70976;BME280;58635;51.198;6.010;2023-12-20T11:11:59;101440.22;;;10.19;64.52
70976;BME280;58635;51.198;6.010;2023-12-20T11:14:46;101436.84;;;10.19;64.50
70976;BME280;58635;51.198;6.010;2023-12-20T11:17:13;101435.06;;;10.19;64.69
70976;BME280;58635;51.198;6.010;2023-12-20T11:22:28;101434.41;;;10.17;64.57
70976;BME280;58635;51.198;6.010;2023-12-20T11:25:04;101436.19;;;10.17;64.68
70976;BME280;58635;51.198;6.010;2023-12-20T11:27:31;101434.59;;;10.16;64.74
70976;BME280;58635;51.198;6.010;2023-12-20T11:29:58;101425.72;;;10.18;64.69
70976;BME280;58635;51.198;6.010;2023-12-20T11:34:59;101432.63;;;10.18;64.77
70976;BME280;58635;51.198;6.010;2023-12-20T11:37:30;101429.09;;;10.19;64.82
70976;BME280;58635;51.198;6.010;2023-12-20T11:40:05;101420.88;;;10.15;64.95
70976;BME280;58635;51.198;6.010;2023-12-20T11:42:42;101417.47;;;10.15;64.96
70976;BME280;58635;51.198;6.010;2023-12-20T11:45:15;101418.28;;;10.15;65.07
70976;BME280;58635;51.198;6.010;2023-12-20T11:47:46;101416.50;;;10.16;65.05
70976;BME280;58635;51.198;6.010;2023-12-20T11:50:12;101426.22;;;10.14;65.10
70976;BME280;58635;51.198;6.010;2023-12-20T11:52:39;101422.66;;;10.15;65.31
70976;BME280;58635;51.198;6.010;2023-12-20T11:55:05;101419.88;;;10.16;65.42
70976;BME280;58635;51.198;6.010;2023-12-20T11:57:34;101411.16;;;10.17;65.31
70976;BME280;58635;51.198;6.010;2023-12-20T12:00:00;101404.03;;;10.19;65.27
70976;BME280;58635;51.198;6.010;2023-12-20T12:02:26;101407.28;;;10.21;65.34
70976;BME280;58635;51.198;6.010;2023-12-20T12:04:53;101399.16;;;10.24;65.33
70976;BME280;58635;51.198;6.010;2023-12-20T12:07:19;101391.69;;;10.30;65.30
70976;BME280;58635;51.198;6.010;2023-12-20T12:09:46;101401.88;;;10.31;65.32
70976;BME280;58635;51.198;6.010;2023-12-20T12:12:13;101398.94;;;10.34;65.24
70976;BME280;58635;51.198;6.010;2023-12-20T12:14:40;101386.78;;;10.35;65.27
70976;BME280;58635;51.198;6.010;2023-12-20T12:17:10;101392.16;;;10.33;65.17
70976;BME280;58635;51.198;6.010;2023-12-20T12:19:39;101395.91;;;10.31;65.21
70976;BME280;58635;51.198;6.010;2023-12-20T12:22:08;101388.75;;;10.33;65.15
70976;BME280;58635;51.198;6.010;2023-12-20T12:24:37;101392.78;;;10.35;65.26
70976;BME280;58635;51.198;6.010;2023-12-20T12:27:06;101390.00;;;10.37;65.09
70976;BME280;58635;51.198;6.010;2023-12-20T12:29:33;101383.50;;;10.41;65.28
70976;BME280;58635;51.198;6.010;2023-12-20T12:31:59;101377.97;;;10.44;65.06
70976;BME280;58635;51.198;6.010;2023-12-20T12:34:29;101373.06;;;10.49;65.31
70976;BME280;58635;51.198;6.010;2023-12-20T12:36:56;101364.69;;;10.47;65.03
70976;BME280;58635;51.198;6.010;2023-12-20T12:39:24;101366.47;;;10.46;65.26
70976;BME280;58635;51.198;6.010;2023-12-20T12:41:53;101369.69;;;10.48;65.12
70976;BME280;58635;51.198;6.010;2023-12-20T12:44:19;101369.13;;;10.53;65.38
70976;BME280;58635;51.198;6.010;2023-12-20T12:46:46;101372.00;;;10.58;65.37
70976;BME280;58635;51.198;6.010;2023-12-20T12:49:16;101363.25;;;10.59;65.43
70976;BME280;58635;51.198;6.010;2023-12-20T12:51:43;101358.09;;;10.59;65.41
70976;BME280;58635;51.198;6.010;2023-12-20T12:54:09;101370.41;;;10.57;65.63
70976;BME280;58635;51.198;6.010;2023-12-20T12:56:36;101361.84;;;10.57;65.29
70976;BME280;58635;51.198;6.010;2023-12-20T12:59:03;101354.88;;;10.57;65.54
70976;BME280;58635;51.198;6.010;2023-12-20T13:01:29;101362.19;;;10.53;65.65
70976;BME280;58635;51.198;6.010;2023-12-20T13:03:55;101352.66;;;10.54;65.90
70976;BME280;58635;51.198;6.010;2023-12-20T13:06:22;101352.19;;;10.50;65.67